CheckWX is a tool to help pilots better visualize weather data.  It is not intended as a substitute for an official pre-flight weather briefing.

02:54:29 UTC

TJSJ METAR
Luis Munoz Marin International Airport
San Juan, Puerto Rico, USA
Current

58 mins ago

TJSJ 020156Z 17004KT 10SM FEW029 26/21 A2996 RMK AO2 SLP143 T02610206
Observed
Apr-2 @ 01:56 UTC
Wind
  • 170° at 4 KTS
Visibility
10 SM
Flight Rules
VFR
Cloud Levels
  • Few at 2,900' AGL
Temperature
26°C / 79°F
Dewpoint
21°C / 70°F
Humidity
74%
Altimeter
29.96" Hg
Pressure
1014.52 hPa
Previous

2 hours ago

TJSJ 020056Z 19004KT 10SM FEW029 27/21 A2994 RMK AO2 SLP137 T02670206
Observed
Apr-2 @ 00:56 UTC
Wind
  • 190° at 4 KTS
Visibility
10 SM
Flight Rules
VFR
Cloud Levels
  • Few at 2,900' AGL
Temperature
27°C / 81°F
Dewpoint
21°C / 70°F
Humidity
70%
Altimeter
29.94" Hg
Pressure
1013.92 hPa
Previous

3 hours ago

TJSJ 012356Z 18004KT 10SM FEW030 27/20 A2993 RMK AO2 SLP132 T02720200 10328 20272 53022
Observed
Apr-1 @ 23:56 UTC
Wind
  • 180° at 4 KTS
Visibility
10 SM
Flight Rules
VFR
Cloud Levels
  • Few at 3,000' AGL
Temperature
27°C / 81°F
Dewpoint
20°C / 68°F
Humidity
66%
Altimeter
29.93" Hg
Pressure
1013.52 hPa